Time;durP1;ratioP1;P1;durP2;ratioP2;P2;SDS_P1;SDS_P2;PMS_P1;PMS_P2;Temp;Humidity;BMP_temperature;BMP_pressure;BME280_temperature;BME280_humidity;BME280_pressure;Samples;Min_cycle;Max_cycle;Signal;HPM_P1;HPM_P2
2023/08/18 00:08:52;;;;;;;8.95;7.43;;;18.80;1.00;;;;;;20700524;28;20248;-43
2023/08/18 00:18:53;;;;;;;9.48;6.93;;;18.70;1.00;;;;;;20704033;28;20319;-42
2023/08/18 00:28:53;;;;;;;9.25;7.55;;;18.60;1.00;;;;;;20712548;28;20085;-43
2023/08/18 00:38:54;;;;;;;10.40;8.65;;;18.60;1.00;;;;;;20695781;28;20107;-43
2023/08/18 00:48:58;;;;;;;10.95;7.60;;;18.50;1.00;;;;;;20697172;28;20124;-43
2023/08/18 00:59:01;;;;;;;9.23;8.20;;;18.40;1.00;;;;;;20693536;28;20050;-42
2023/08/18 01:09:01;;;;;;;8.98;6.82;;;18.30;1.00;;;;;;20697499;28;20037;-43
2023/08/18 01:19:03;;;;;;;9.27;7.87;;;18.30;1.00;;;;;;20689383;28;20061;-43
2023/08/18 01:29:04;;;;;;;10.65;8.27;;;18.20;1.00;;;;;;20676309;28;20832;-44
2023/08/18 01:39:06;;;;;;;10.60;8.48;;;18.10;1.00;;;;;;20674023;28;20411;-43
2023/08/18 01:49:07;;;;;;;11.98;9.88;;;17.90;1.00;;;;;;20679719;28;20053;-43
2023/08/18 01:59:08;;;;;;;12.68;9.52;;;17.90;1.00;;;;;;20679626;28;20045;-43
2023/08/18 02:09:08;;;;;;;10.77;8.82;;;17.80;1.00;;;;;;20678013;28;20076;-43
2023/08/18 02:19:09;;;;;;;10.65;8.45;;;17.60;1.00;;;;;;20671640;28;20445;-42
2023/08/18 02:29:09;;;;;;;9.45;7.80;;;17.60;1.00;;;;;;20674410;28;20039;-43
2023/08/18 02:39:10;;;;;;;9.68;8.23;;;17.60;1.00;;;;;;20674459;28;20034;-43
2023/08/18 02:49:10;;;;;;;10.13;7.88;;;17.50;1.00;;;;;;20668088;28;20112;-42
2023/08/18 02:59:11;;;;;;;10.20;8.40;;;17.30;7.20;;;;;;20667818;28;20038;-43
2023/08/18 03:09:11;;;;;;;9.73;7.40;;;17.30;15.90;;;;;;20684566;28;20518;-43
2023/08/18 03:19:12;;;;;;;9.30;7.20;;;17.20;15.60;;;;;;20663539;28;20046;-43
2023/08/18 03:29:12;;;;;;;9.27;7.47;;;17.20;16.80;;;;;;20679813;28;20140;-43
2023/08/18 03:39:13;;;;;;;12.13;8.20;;;17.10;24.30;;;;;;20675734;28;20509;-44
2023/08/18 03:49:13;;;;;;;12.88;8.80;;;17.00;34.70;;;;;;20677877;28;20049;-43
2023/08/18 03:59:14;;;;;;;10.18;7.88;;;17.10;31.50;;;;;;20672322;28;20521;-43
2023/08/18 04:09:17;;;;;;;9.05;7.88;;;17.10;26.60;;;;;;20681892;28;20446;-42
2023/08/18 04:19:18;;;;;;;11.48;7.85;;;17.10;30.70;;;;;;20683890;28;20045;-42
2023/08/18 04:29:18;;;;;;;10.15;8.27;;;17.00;34.10;;;;;;20683236;28;20277;-42
2023/08/18 04:39:19;;;;;;;11.25;7.90;;;17.00;44.70;;;;;;20684749;28;20514;-42
2023/08/18 04:49:19;;;;;;;12.03;9.07;;;17.00;64.10;;;;;;20684682;28;21651;-42
2023/08/18 04:59:20;;;;;;;15.18;10.68;;;16.90;92.80;;;;;;20676821;28;20475;-42
2023/08/18 05:09:21;;;;;;;14.60;11.18;;;16.80;94.10;;;;;;20674180;28;20048;-42
2023/08/18 05:19:21;;;;;;;15.20;10.70;;;16.90;94.50;;;;;;20680560;28;20033;-42
2023/08/18 05:29:22;;;;;;;15.43;11.23;;;16.90;86.30;;;;;;20673497;28;20468;-42
2023/08/18 05:39:22;;;;;;;16.92;13.32;;;16.90;90.30;;;;;;20679171;28;20444;-42
2023/08/18 05:49:23;;;;;;;19.63;13.18;;;17.00;93.40;;;;;;20667924;28;20184;-42
2023/08/18 05:59:23;;;;;;;15.63;12.32;;;17.00;87.60;;;;;;20662616;28;20050;-41
2023/08/18 06:09:24;;;;;;;21.92;14.50;;;17.10;83.40;;;;;;20667485;28;20045;-41
2023/08/18 06:19:24;;;;;;;16.17;12.43;;;17.20;70.60;;;;;;20672645;28;20049;-41
2023/08/18 06:29:25;;;;;;;19.67;14.02;;;17.20;63.90;;;;;;20674066;28;20041;-41
2023/08/18 06:39:25;;;;;;;19.42;14.05;;;17.20;66.60;;;;;;20683865;28;20048;-42
2023/08/18 06:49:26;;;;;;;19.58;13.63;;;17.40;58.20;;;;;;20660580;28;20060;-41
2023/08/18 06:59:27;;;;;;;16.38;12.35;;;17.60;50.90;;;;;;20670682;28;20588;-41
2023/08/18 07:09:28;;;;;;;20.02;14.07;;;18.00;24.00;;;;;;20689792;28;20227;-41
2023/08/18 07:19:28;;;;;;;17.98;13.20;;;18.10;14.90;;;;;;20681991;28;20046;-41
2023/08/18 07:29:29;;;;;;;16.40;11.30;;;18.20;13.20;;;;;;20688062;28;20374;-41
2023/08/18 07:39:29;;;;;;;17.30;11.27;;;18.30;11.80;;;;;;20690237;28;20050;-42
2023/08/18 07:49:30;;;;;;;17.92;13.05;;;18.50;12.90;;;;;;20695195;28;20108;-42
2023/08/18 07:59:31;;;;;;;13.63;11.23;;;18.50;8.40;;;;;;20704454;28;20532;-42
2023/08/18 08:09:31;;;;;;;14.98;11.88;;;18.50;2.50;;;;;;20670221;28;20038;-42
2023/08/18 08:19:32;;;;;;;15.80;12.63;;;18.70;1.00;;;;;;20686724;28;20085;-42
2023/08/18 08:29:32;;;;;;;15.60;12.38;;;19.10;1.00;;;;;;20692778;28;20490;-42
2023/08/18 08:39:33;;;;;;;15.32;11.55;;;19.40;1.00;;;;;;20695537;28;20076;-42
2023/08/18 08:49:35;;;;;;;15.48;11.05;;;19.70;1.00;;;;;;20676044;28;20273;-42
2023/08/18 08:59:36;;;;;;;13.88;9.80;;;20.10;1.00;;;;;;20695376;28;20122;-45
2023/08/18 09:09:37;;;;;;;14.38;10.82;;;20.30;1.00;;;;;;20688034;28;21359;-44
2023/08/18 09:19:38;;;;;;;17.25;12.30;;;20.70;1.00;;;;;;20696705;28;20407;-44
2023/08/18 09:29:38;;;;;;;13.77;10.57;;;21.10;1.00;;;;;;20699387;28;20044;-42
2023/08/18 09:39:39;;;;;;;16.73;11.60;;;21.90;1.00;;;;;;20728091;28;20077;-42
2023/08/18 09:49:42;;;;;;;11.45;9.35;;;22.40;1.00;;;;;;20722820;28;20056;-43
2023/08/18 09:59:47;;;;;;;15.90;9.60;;;22.80;1.00;;;;;;20730771;28;20038;-46
2023/08/18 10:09:48;;;;;;;14.75;9.85;;;23.00;1.00;;;;;;20735834;28;20049;-44
2023/08/18 10:19:49;;;;;;;12.30;8.52;;;22.70;1.00;;;;;;20737358;28;20053;-44
2023/08/18 10:29:50;;;;;;;13.32;10.23;;;22.50;1.00;;;;;;20716562;28;20095;-43
2023/08/18 10:39:51;;;;;;;12.05;8.32;;;22.70;1.00;;;;;;20727427;28;20316;-43
2023/08/18 10:49:51;;;;;;;13.73;9.75;;;23.20;1.00;;;;;;20723003;28;20593;-44
2023/08/18 10:59:52;;;;;;;12.38;8.57;;;23.80;1.00;;;;;;20729595;28;20089;-43
2023/08/18 11:09:52;;;;;;;14.30;10.63;;;24.20;1.00;;;;;;20727536;28;20049;-43
2023/08/18 11:19:54;;;;;;;11.82;9.57;;;24.00;1.00;;;;;;20716458;28;20618;-44
2023/08/18 11:29:54;;;;;;;13.23;9.50;;;24.10;1.00;;;;;;20703822;28;20041;-43
2023/08/18 11:39:55;;;;;;;9.80;7.90;;;24.00;1.00;;;;;;20736696;28;20493;-44
2023/08/18 11:49:55;;;;;;;11.30;8.23;;;24.40;1.00;;;;;;20713570;28;20092;-43
2023/08/18 11:59:56;;;;;;;11.60;7.70;;;24.30;1.00;;;;;;20720896;28;20037;-44
2023/08/18 12:09:57;;;;;;;9.35;7.43;;;24.70;1.00;;;;;;20716721;28;20038;-44
2023/08/18 12:19:57;;;;;;;10.05;7.22;;;24.40;1.00;;;;;;20712224;28;20033;-44
2023/08/18 12:29:58;;;;;;;9.23;6.95;;;24.70;1.00;;;;;;20701050;28;20038;-44
2023/08/18 12:39:58;;;;;;;9.02;7.05;;;25.20;1.00;;;;;;20689485;28;20975;-44
2023/08/18 12:49:59;;;;;;;8.63;6.60;;;25.80;1.00;;;;;;20695037;28;20046;-44
2023/08/18 13:00:00;;;;;;;6.97;5.72;;;26.40;1.00;;;;;;20697197;28;20038;-44
2023/08/18 13:10:00;;;;;;;6.55;5.60;;;26.30;1.00;;;;;;20708548;28;20088;-44
2023/08/18 13:20:03;;;;;;;5.87;4.83;;;26.50;1.00;;;;;;20698624;28;20042;-43
2023/08/18 13:30:05;;;;;;;4.90;4.03;;;27.10;1.00;;;;;;20691654;28;20538;-44
2023/08/18 13:40:06;;;;;;;5.50;4.30;;;27.70;1.00;;;;;;20712029;28;20100;-44
2023/08/18 13:50:07;;;;;;;6.32;4.40;;;27.90;1.00;;;;;;20662146;28;20060;-44
2023/08/18 14:00:09;;;;;;;4.73;3.87;;;28.20;1.00;;;;;;20689137;28;20034;-44
2023/08/18 14:10:10;;;;;;;6.85;4.15;;;28.30;1.00;;;;;;20697425;28;20559;-44
2023/08/18 14:20:17;;;;;;;6.35;4.45;;;28.10;1.00;;;;;;20726041;28;20718;-44
2023/08/18 14:30:20;;;;;;;4.85;3.20;;;27.50;1.00;;;;;;20719625;28;20041;-44
2023/08/18 14:40:21;;;;;;;3.70;3.25;;;27.00;1.00;;;;;;20713627;28;20062;-44
2023/08/18 14:50:21;;;;;;;3.53;3.20;;;26.70;1.00;;;;;;20725799;28;20054;-44
2023/08/18 15:00:22;;;;;;;4.63;3.53;;;26.70;1.00;;;;;;20714166;28;20502;-44
2023/08/18 15:10:23;;;;;;;4.63;3.33;;;27.00;1.00;;;;;;20708890;28;20688;-43
2023/08/18 15:20:23;;;;;;;3.97;2.63;;;27.20;1.00;;;;;;20706527;28;20042;-43
2023/08/18 15:30:24;;;;;;;3.85;3.00;;;27.20;1.00;;;;;;20716187;28;20046;-44
2023/08/18 15:40:24;;;;;;;3.72;3.08;;;27.30;1.00;;;;;;20673349;28;20081;-43
2023/08/18 15:50:25;;;;;;;3.95;3.00;;;27.20;1.00;;;;;;20660376;28;20492;-44
2023/08/18 16:00:25;;;;;;;3.53;3.20;;;26.80;1.00;;;;;;20664614;28;20116;-43
2023/08/18 16:10:28;;;;;;;4.18;3.65;;;26.60;1.00;;;;;;20670064;28;20660;-43
2023/08/18 16:20:28;;;;;;;8.75;6.65;;;26.70;1.00;;;;;;20696524;28;20038;-43
2023/08/18 16:30:29;;;;;;;8.70;6.80;;;26.50;1.00;;;;;;20686986;28;20049;-43
2023/08/18 16:40:30;;;;;;;9.18;8.02;;;26.00;1.00;;;;;;20681070;28;20070;-43
2023/08/18 16:50:30;;;;;;;8.75;7.60;;;25.40;1.00;;;;;;20668695;28;20129;-43
2023/08/18 17:00:31;;;;;;;15.60;8.93;;;25.20;1.00;;;;;;20706852;28;20065;-43
2023/08/18 17:10:33;;;;;;;7.22;6.03;;;25.40;1.00;;;;;;20719407;28;20571;-43
2023/08/18 17:20:33;;;;;;;8.93;7.22;;;25.60;1.00;;;;;;20720204;28;20125;-43
2023/08/18 17:30:34;;;;;;;6.53;5.30;;;25.90;1.00;;;;;;20706952;28;20635;-43
2023/08/18 17:40:35;;;;;;;5.53;5.03;;;26.00;1.00;;;;;;20706778;28;20721;-44
2023/08/18 17:50:36;;;;;;;8.93;6.85;;;25.80;1.00;;;;;;20721040;28;20064;-43
2023/08/18 18:00:40;;;;;;;6.75;5.70;;;25.60;1.00;;;;;;20714664;28;20154;-43
2023/08/18 18:10:46;;;;;;;7.22;6.00;;;25.50;1.00;;;;;;20712314;28;21295;-43
2023/08/18 18:20:47;;;;;;;6.72;5.95;;;25.30;1.00;;;;;;20714927;28;20492;-44
2023/08/18 18:30:49;;;;;;;7.65;6.32;;;25.00;1.00;;;;;;20722672;28;20037;-44
2023/08/18 18:40:49;;;;;;;7.53;6.47;;;24.90;1.00;;;;;;20717804;28;22861;-44
2023/08/18 18:50:50;;;;;;;6.55;5.95;;;24.80;1.00;;;;;;20725962;28;20052;-43
2023/08/18 19:00:50;;;;;;;7.82;7.05;;;24.60;1.00;;;;;;20712422;28;20030;-43
2023/08/18 19:10:56;;;;;;;7.18;6.47;;;24.40;1.00;;;;;;20715104;28;20046;-43
2023/08/18 19:20:57;;;;;;;7.90;7.10;;;24.20;1.00;;;;;;20695754;28;20033;-44
2023/08/18 19:30:57;;;;;;;7.82;7.03;;;24.10;1.00;;;;;;20699187;28;20061;-43
2023/08/18 19:40:58;;;;;;;8.32;7.53;;;24.00;1.00;;;;;;20724268;28;20516;-43
2023/08/18 19:50:59;;;;;;;7.90;7.10;;;23.80;1.00;;;;;;20732925;28;20056;-43
2023/08/18 20:01:02;;;;;;;9.80;8.80;;;23.50;1.00;;;;;;20724918;28;20487;-43
2023/08/18 20:11:04;;;;;;;11.88;9.55;;;23.30;1.00;;;;;;20736364;28;20410;-43
2023/08/18 20:21:05;;;;;;;10.82;8.98;;;23.20;1.00;;;;;;20710142;28;20788;-43
2023/08/18 20:31:06;;;;;;;9.05;8.15;;;23.10;1.00;;;;;;20707356;28;20046;-44
2023/08/18 20:41:10;;;;;;;10.98;9.93;;;22.90;1.00;;;;;;20686175;28;22623;-43
2023/08/18 20:51:12;;;;;;;13.82;11.10;;;22.70;2.10;;;;;;20679021;28;20137;-43
2023/08/18 21:01:12;;;;;;;13.98;11.73;;;22.60;10.00;;;;;;20683614;28;20092;-43
2023/08/18 21:11:13;;;;;;;12.70;11.43;;;22.60;15.10;;;;;;20683996;28;20088;-42
2023/08/18 21:21:13;;;;;;;13.00;11.65;;;22.50;18.40;;;;;;20682158;28;20033;-42
2023/08/18 21:31:14;;;;;;;14.13;12.73;;;22.40;23.40;;;;;;20682518;28;20107;-43
2023/08/18 21:41:15;;;;;;;12.27;11.07;;;22.40;35.10;;;;;;20682842;28;20137;-43
2023/08/18 21:51:16;;;;;;;13.35;12.00;;;22.40;35.90;;;;;;20682482;28;20139;-43
2023/08/18 22:01:17;;;;;;;11.95;10.73;;;22.50;38.50;;;;;;20675939;28;20033;-43
2023/08/18 22:11:17;;;;;;;14.50;12.65;;;22.60;35.80;;;;;;20711114;28;20528;-43
2023/08/18 22:21:18;;;;;;;13.00;11.70;;;22.60;35.50;;;;;;20693870;28;20045;-44
2023/08/18 22:31:18;;;;;;;14.38;12.98;;;22.60;31.00;;;;;;20684687;28;20056;-43
2023/08/18 22:41:19;;;;;;;12.65;11.45;;;22.60;37.40;;;;;;20695142;28;20053;-43
2023/08/18 22:51:19;;;;;;;13.38;11.98;;;22.60;39.90;;;;;;20683563;28;20524;-43
2023/08/18 23:01:20;;;;;;;15.02;12.60;;;22.60;35.70;;;;;;20692905;28;20033;-43
2023/08/18 23:11:20;;;;;;;15.38;13.73;;;22.70;30.30;;;;;;20687591;28;20049;-43
2023/08/18 23:21:22;;;;;;;14.98;13.48;;;22.70;31.60;;;;;;20687136;28;20489;-43
2023/08/18 23:31:23;;;;;;;14.00;12.60;;;22.60;32.00;;;;;;20691751;28;20048;-43
2023/08/18 23:41:23;;;;;;;15.27;13.18;;;22.60;38.10;;;;;;20697814;28;20037;-42
2023/08/18 23:51:24;;;;;;;14.93;12.65;;;22.50;38.80;;;;;;20690492;28;20422;-43
